sensor_id;sensor_type;location;lat;lon;timestamp;P1;durP1;ratioP1;P2;durP2;ratioP2
3349;SDS011;1688;51.000;13.684;2023-04-01T00:02:27;1.30;;;1.20;;
3349;SDS011;1688;51.000;13.684;2023-04-01T00:05:01;0.70;;;0.50;;
3349;SDS011;1688;51.000;13.684;2023-04-01T00:07:34;0.70;;;0.50;;
3349;SDS011;1688;51.000;13.684;2023-04-01T00:10:07;0.80;;;0.50;;
3349;SDS011;1688;51.000;13.684;2023-04-01T00:12:42;1.10;;;0.50;;
3349;SDS011;1688;51.000;13.684;2023-04-01T00:15:15;1.20;;;0.70;;
3349;SDS011;1688;51.000;13.684;2023-04-01T00:17:48;0.70;;;0.40;;
3349;SDS011;1688;51.000;13.684;2023-04-01T00:20:22;1.30;;;0.87;;
3349;SDS011;1688;51.000;13.684;2023-04-01T00:22:55;0.80;;;0.70;;
3349;SDS011;1688;51.000;13.684;2023-04-01T00:25:29;4.90;;;0.90;;
3349;SDS011;1688;51.000;13.684;2023-04-01T00:28:02;0.80;;;0.60;;
3349;SDS011;1688;51.000;13.684;2023-04-01T00:30:36;0.80;;;0.50;;
3349;SDS011;1688;51.000;13.684;2023-04-01T00:33:09;0.90;;;0.77;;
3349;SDS011;1688;51.000;13.684;2023-04-01T00:35:43;3.33;;;0.70;;
3349;SDS011;1688;51.000;13.684;2023-04-01T00:38:16;0.70;;;0.50;;
3349;SDS011;1688;51.000;13.684;2023-04-01T00:40:50;1.17;;;1.00;;
3349;SDS011;1688;51.000;13.684;2023-04-01T00:43:30;1.07;;;0.60;;
3349;SDS011;1688;51.000;13.684;2023-04-01T00:46:03;0.90;;;0.67;;
3349;SDS011;1688;51.000;13.684;2023-04-01T00:48:38;8.87;;;1.27;;
3349;SDS011;1688;51.000;13.684;2023-04-01T00:51:22;0.70;;;0.50;;
3349;SDS011;1688;51.000;13.684;2023-04-01T00:53:57;0.80;;;0.60;;
3349;SDS011;1688;51.000;13.684;2023-04-01T00:56:35;2.13;;;0.90;;
3349;SDS011;1688;51.000;13.684;2023-04-01T00:59:11;2.90;;;0.80;;
3349;SDS011;1688;51.000;13.684;2023-04-01T01:01:46;6.60;;;1.10;;
3349;SDS011;1688;51.000;13.684;2023-04-01T01:06:58;1.00;;;0.90;;
3349;SDS011;1688;51.000;13.684;2023-04-01T01:09:37;0.80;;;0.50;;
3349;SDS011;1688;51.000;13.684;2023-04-01T01:12:23;1.47;;;0.80;;
3349;SDS011;1688;51.000;13.684;2023-04-01T01:20:31;0.80;;;0.77;;
3349;SDS011;1688;51.000;13.684;2023-04-01T01:25:43;0.80;;;0.70;;
3349;SDS011;1688;51.000;13.684;2023-04-01T01:36:26;3.53;;;0.80;;
3349;SDS011;1688;51.000;13.684;2023-04-01T01:39:05;2.63;;;0.60;;
3349;SDS011;1688;51.000;13.684;2023-04-01T01:41:39;0.80;;;0.50;;
3349;SDS011;1688;51.000;13.684;2023-04-01T01:44:12;0.70;;;0.50;;
3349;SDS011;1688;51.000;13.684;2023-04-01T01:46:47;0.70;;;0.50;;
3349;SDS011;1688;51.000;13.684;2023-04-01T01:49:21;4.83;;;1.23;;
3349;SDS011;1688;51.000;13.684;2023-04-01T01:51:56;1.53;;;0.87;;
3349;SDS011;1688;51.000;13.684;2023-04-01T01:54:29;0.90;;;0.57;;
3349;SDS011;1688;51.000;13.684;2023-04-01T01:57:06;1.20;;;0.80;;
3349;SDS011;1688;51.000;13.684;2023-04-01T01:59:40;4.10;;;1.13;;
3349;SDS011;1688;51.000;13.684;2023-04-01T02:02:14;1.20;;;0.77;;
3349;SDS011;1688;51.000;13.684;2023-04-01T02:04:48;1.77;;;0.77;;
3349;SDS011;1688;51.000;13.684;2023-04-01T02:07:28;1.93;;;1.50;;
3349;SDS011;1688;51.000;13.684;2023-04-01T02:10:03;1.00;;;0.70;;
3349;SDS011;1688;51.000;13.684;2023-04-01T02:12:37;0.70;;;0.43;;
3349;SDS011;1688;51.000;13.684;2023-04-01T02:15:11;1.53;;;0.97;;
3349;SDS011;1688;51.000;13.684;2023-04-01T02:17:46;0.80;;;0.50;;
3349;SDS011;1688;51.000;13.684;2023-04-01T02:20:22;1.63;;;1.27;;
3349;SDS011;1688;51.000;13.684;2023-04-01T02:22:56;0.90;;;0.60;;
3349;SDS011;1688;51.000;13.684;2023-04-01T02:25:33;0.87;;;0.80;;
3349;SDS011;1688;51.000;13.684;2023-04-01T02:28:08;1.67;;;0.70;;
3349;SDS011;1688;51.000;13.684;2023-04-01T02:30:41;1.20;;;1.00;;
3349;SDS011;1688;51.000;13.684;2023-04-01T02:33:15;0.90;;;0.60;;
3349;SDS011;1688;51.000;13.684;2023-04-01T02:35:49;0.70;;;0.50;;
3349;SDS011;1688;51.000;13.684;2023-04-01T02:38:23;0.93;;;0.70;;
3349;SDS011;1688;51.000;13.684;2023-04-01T02:40:57;1.20;;;0.73;;
3349;SDS011;1688;51.000;13.684;2023-04-01T02:43:31;0.70;;;0.60;;
3349;SDS011;1688;51.000;13.684;2023-04-01T02:46:05;0.90;;;0.63;;
3349;SDS011;1688;51.000;13.684;2023-04-01T02:48:38;2.30;;;0.90;;
3349;SDS011;1688;51.000;13.684;2023-04-01T02:51:11;2.80;;;0.90;;
3349;SDS011;1688;51.000;13.684;2023-04-01T02:53:44;1.13;;;0.70;;
3349;SDS011;1688;51.000;13.684;2023-04-01T02:56:17;1.10;;;0.53;;
3349;SDS011;1688;51.000;13.684;2023-04-01T02:58:52;1.10;;;1.00;;
3349;SDS011;1688;51.000;13.684;2023-04-01T03:01:25;0.93;;;0.50;;
3349;SDS011;1688;51.000;13.684;2023-04-01T03:03:58;1.73;;;0.70;;
3349;SDS011;1688;51.000;13.684;2023-04-01T03:06:32;1.03;;;0.50;;
3349;SDS011;1688;51.000;13.684;2023-04-01T03:09:05;1.87;;;0.83;;
3349;SDS011;1688;51.000;13.684;2023-04-01T03:11:38;0.70;;;0.40;;
3349;SDS011;1688;51.000;13.684;2023-04-01T03:14:12;7.93;;;1.00;;
3349;SDS011;1688;51.000;13.684;2023-04-01T03:16:46;1.47;;;1.00;;
3349;SDS011;1688;51.000;13.684;2023-04-01T03:19:19;1.77;;;0.70;;
3349;SDS011;1688;51.000;13.684;2023-04-01T03:21:52;0.70;;;0.60;;
3349;SDS011;1688;51.000;13.684;2023-04-01T03:24:26;1.00;;;0.70;;
3349;SDS011;1688;51.000;13.684;2023-04-01T03:26:59;1.47;;;0.70;;
3349;SDS011;1688;51.000;13.684;2023-04-01T03:29:32;1.00;;;0.70;;
3349;SDS011;1688;51.000;13.684;2023-04-01T03:32:05;1.00;;;0.80;;
3349;SDS011;1688;51.000;13.684;2023-04-01T03:34:39;1.33;;;0.70;;
3349;SDS011;1688;51.000;13.684;2023-04-01T03:37:12;0.70;;;0.60;;
3349;SDS011;1688;51.000;13.684;2023-04-01T03:39:46;0.77;;;0.60;;
3349;SDS011;1688;51.000;13.684;2023-04-01T03:42:19;1.33;;;0.90;;
3349;SDS011;1688;51.000;13.684;2023-04-01T03:44:52;5.90;;;1.23;;
3349;SDS011;1688;51.000;13.684;2023-04-01T03:47:25;1.03;;;0.97;;
3349;SDS011;1688;51.000;13.684;2023-04-01T03:49:59;0.90;;;0.70;;
3349;SDS011;1688;51.000;13.684;2023-04-01T03:52:32;0.80;;;0.77;;
3349;SDS011;1688;51.000;13.684;2023-04-01T03:55:05;0.80;;;0.77;;
3349;SDS011;1688;51.000;13.684;2023-04-01T03:57:39;0.90;;;0.73;;
3349;SDS011;1688;51.000;13.684;2023-04-01T04:00:12;0.97;;;0.70;;
3349;SDS011;1688;51.000;13.684;2023-04-01T04:02:45;2.00;;;0.93;;
3349;SDS011;1688;51.000;13.684;2023-04-01T04:05:19;1.30;;;0.70;;
3349;SDS011;1688;51.000;13.684;2023-04-01T04:07:52;1.13;;;0.70;;
3349;SDS011;1688;51.000;13.684;2023-04-01T04:10:25;1.00;;;0.90;;
3349;SDS011;1688;51.000;13.684;2023-04-01T04:13:01;0.90;;;0.70;;
3349;SDS011;1688;51.000;13.684;2023-04-01T04:15:34;1.10;;;0.90;;
3349;SDS011;1688;51.000;13.684;2023-04-01T04:18:07;0.80;;;0.60;;
3349;SDS011;1688;51.000;13.684;2023-04-01T04:20:44;0.80;;;0.50;;
3349;SDS011;1688;51.000;13.684;2023-04-01T04:23:20;1.27;;;1.07;;
3349;SDS011;1688;51.000;13.684;2023-04-01T04:25:57;0.87;;;0.83;;
3349;SDS011;1688;51.000;13.684;2023-04-01T04:28:31;0.90;;;0.70;;
3349;SDS011;1688;51.000;13.684;2023-04-01T04:31:05;0.90;;;0.60;;
3349;SDS011;1688;51.000;13.684;2023-04-01T04:33:38;1.13;;;0.83;;
3349;SDS011;1688;51.000;13.684;2023-04-01T04:36:12;1.50;;;0.93;;
3349;SDS011;1688;51.000;13.684;2023-04-01T04:38:45;1.17;;;1.07;;
3349;SDS011;1688;51.000;13.684;2023-04-01T04:41:19;1.03;;;0.90;;
3349;SDS011;1688;51.000;13.684;2023-04-01T04:43:55;1.53;;;0.80;;
3349;SDS011;1688;51.000;13.684;2023-04-01T04:46:28;1.87;;;1.77;;
3349;SDS011;1688;51.000;13.684;2023-04-01T04:49:01;0.80;;;0.57;;
3349;SDS011;1688;51.000;13.684;2023-04-01T04:51:34;0.80;;;0.50;;
3349;SDS011;1688;51.000;13.684;2023-04-01T04:54:08;0.80;;;0.70;;
3349;SDS011;1688;51.000;13.684;2023-04-01T04:56:41;0.90;;;0.60;;
3349;SDS011;1688;51.000;13.684;2023-04-01T04:59:14;1.20;;;0.90;;
3349;SDS011;1688;51.000;13.684;2023-04-01T05:01:48;1.27;;;0.80;;
3349;SDS011;1688;51.000;13.684;2023-04-01T05:04:21;1.10;;;1.00;;
3349;SDS011;1688;51.000;13.684;2023-04-01T05:06:54;0.70;;;0.57;;
3349;SDS011;1688;51.000;13.684;2023-04-01T05:09:27;0.70;;;0.50;;
3349;SDS011;1688;51.000;13.684;2023-04-01T05:12:01;0.80;;;0.60;;
3349;SDS011;1688;51.000;13.684;2023-04-01T05:14:34;0.70;;;0.50;;
3349;SDS011;1688;51.000;13.684;2023-04-01T05:17:08;1.20;;;1.10;;
3349;SDS011;1688;51.000;13.684;2023-04-01T05:19:42;1.10;;;0.50;;
3349;SDS011;1688;51.000;13.684;2023-04-01T05:22:15;8.80;;;1.40;;
3349;SDS011;1688;51.000;13.684;2023-04-01T05:24:49;0.90;;;0.63;;
3349;SDS011;1688;51.000;13.684;2023-04-01T05:27:22;1.20;;;0.90;;
3349;SDS011;1688;51.000;13.684;2023-04-01T05:29:55;0.80;;;0.63;;
3349;SDS011;1688;51.000;13.684;2023-04-01T05:32:30;2.20;;;1.30;;
3349;SDS011;1688;51.000;13.684;2023-04-01T05:35:03;0.70;;;0.50;;
3349;SDS011;1688;51.000;13.684;2023-04-01T05:37:37;0.93;;;0.60;;
3349;SDS011;1688;51.000;13.684;2023-04-01T05:40:10;2.00;;;1.03;;
3349;SDS011;1688;51.000;13.684;2023-04-01T05:42:43;3.73;;;2.20;;
3349;SDS011;1688;51.000;13.684;2023-04-01T05:45:17;1.10;;;0.70;;
3349;SDS011;1688;51.000;13.684;2023-04-01T05:47:50;7.40;;;0.80;;
3349;SDS011;1688;51.000;13.684;2023-04-01T05:50:24;0.70;;;0.57;;
3349;SDS011;1688;51.000;13.684;2023-04-01T05:52:57;1.17;;;0.60;;
3349;SDS011;1688;51.000;13.684;2023-04-01T05:55:30;2.87;;;0.60;;
3349;SDS011;1688;51.000;13.684;2023-04-01T05:58:04;1.20;;;0.73;;
3349;SDS011;1688;51.000;13.684;2023-04-01T06:00:37;1.37;;;0.60;;
3349;SDS011;1688;51.000;13.684;2023-04-01T06:03:10;0.80;;;0.60;;
3349;SDS011;1688;51.000;13.684;2023-04-01T06:05:44;0.90;;;0.70;;
3349;SDS011;1688;51.000;13.684;2023-04-01T06:08:17;7.13;;;1.47;;
3349;SDS011;1688;51.000;13.684;2023-04-01T06:19:25;0.70;;;0.50;;
3349;SDS011;1688;51.000;13.684;2023-04-01T06:22:13;5.07;;;0.77;;
3349;SDS011;1688;51.000;13.684;2023-04-01T06:44:24;0.80;;;0.70;;
3349;SDS011;1688;51.000;13.684;2023-04-01T07:00:53;1.30;;;0.50;;
3349;SDS011;1688;51.000;13.684;2023-04-01T07:03:32;1.10;;;0.60;;
3349;SDS011;1688;51.000;13.684;2023-04-01T07:06:08;1.00;;;0.60;;
3349;SDS011;1688;51.000;13.684;2023-04-01T07:08:43;0.90;;;0.70;;
3349;SDS011;1688;51.000;13.684;2023-04-01T07:11:23;0.80;;;0.50;;
3349;SDS011;1688;51.000;13.684;2023-04-01T07:13:59;2.60;;;1.70;;
3349;SDS011;1688;51.000;13.684;2023-04-01T07:16:39;0.70;;;0.40;;
3349;SDS011;1688;51.000;13.684;2023-04-01T07:19:31;4.63;;;1.43;;
3349;SDS011;1688;51.000;13.684;2023-04-01T07:24:57;0.70;;;0.40;;
3349;SDS011;1688;51.000;13.684;2023-04-01T07:27:34;0.80;;;0.63;;
3349;SDS011;1688;51.000;13.684;2023-04-01T07:30:13;0.90;;;0.60;;
3349;SDS011;1688;51.000;13.684;2023-04-01T07:35:38;2.10;;;0.80;;
3349;SDS011;1688;51.000;13.684;2023-04-01T07:41:11;1.57;;;0.70;;
3349;SDS011;1688;51.000;13.684;2023-04-01T07:46:48;0.97;;;0.57;;
3349;SDS011;1688;51.000;13.684;2023-04-01T07:49:28;0.80;;;0.50;;
3349;SDS011;1688;51.000;13.684;2023-04-01T07:52:18;0.70;;;0.47;;
3349;SDS011;1688;51.000;13.684;2023-04-01T08:00:39;5.00;;;0.80;;
3349;SDS011;1688;51.000;13.684;2023-04-01T08:06:05;1.13;;;1.03;;
3349;SDS011;1688;51.000;13.684;2023-04-01T08:21:51;0.70;;;0.40;;
3349;SDS011;1688;51.000;13.684;2023-04-01T08:24:26;2.63;;;0.73;;
3349;SDS011;1688;51.000;13.684;2023-04-01T08:27:23;3.90;;;0.70;;
3349;SDS011;1688;51.000;13.684;2023-04-01T08:30:15;2.60;;;0.60;;
3349;SDS011;1688;51.000;13.684;2023-04-01T08:38:09;0.80;;;0.60;;
3349;SDS011;1688;51.000;13.684;2023-04-01T08:43:28;3.03;;;1.57;;
3349;SDS011;1688;51.000;13.684;2023-04-01T08:48:52;1.37;;;1.27;;
3349;SDS011;1688;51.000;13.684;2023-04-01T08:51:46;0.70;;;0.40;;
3349;SDS011;1688;51.000;13.684;2023-04-01T09:05:18;0.90;;;0.80;;
3349;SDS011;1688;51.000;13.684;2023-04-01T09:11:16;1.77;;;0.93;;
3349;SDS011;1688;51.000;13.684;2023-04-01T09:16:27;0.90;;;0.60;;
3349;SDS011;1688;51.000;13.684;2023-04-01T09:19:11;1.17;;;0.87;;
3349;SDS011;1688;51.000;13.684;2023-04-01T09:29:53;7.90;;;0.80;;
3349;SDS011;1688;51.000;13.684;2023-04-01T09:32:33;0.90;;;0.60;;
3349;SDS011;1688;51.000;13.684;2023-04-01T09:43:04;1.30;;;0.60;;
3349;SDS011;1688;51.000;13.684;2023-04-01T09:48:30;0.70;;;0.50;;
3349;SDS011;1688;51.000;13.684;2023-04-01T09:51:21;1.40;;;0.60;;
3349;SDS011;1688;51.000;13.684;2023-04-01T10:03:35;0.90;;;0.53;;
3349;SDS011;1688;51.000;13.684;2023-04-01T10:11:07;0.70;;;0.53;;
3349;SDS011;1688;51.000;13.684;2023-04-01T10:14:00;0.77;;;0.50;;
3349;SDS011;1688;51.000;13.684;2023-04-01T10:25:00;1.83;;;0.50;;
3349;SDS011;1688;51.000;13.684;2023-04-01T10:28:15;1.90;;;1.00;;
3349;SDS011;1688;51.000;13.684;2023-04-01T10:36:36;2.30;;;0.60;;
3349;SDS011;1688;51.000;13.684;2023-04-01T10:44:25;0.80;;;0.50;;
3349;SDS011;1688;51.000;13.684;2023-04-01T11:20:18;5.13;;;1.27;;
3349;SDS011;1688;51.000;13.684;2023-04-01T11:31:11;5.27;;;1.07;;
3349;SDS011;1688;51.000;13.684;2023-04-01T11:33:54;6.13;;;2.30;;
3349;SDS011;1688;51.000;13.684;2023-04-01T11:36:37;2.13;;;1.87;;
3349;SDS011;1688;51.000;13.684;2023-04-01T11:39:16;1.10;;;0.60;;
3349;SDS011;1688;51.000;13.684;2023-04-01T11:42:16;2.93;;;1.33;;
3349;SDS011;1688;51.000;13.684;2023-04-01T11:44:56;3.43;;;0.53;;
3349;SDS011;1688;51.000;13.684;2023-04-01T11:50:12;1.03;;;0.60;;
3349;SDS011;1688;51.000;13.684;2023-04-01T11:53:05;1.77;;;1.00;;
3349;SDS011;1688;51.000;13.684;2023-04-01T11:58:23;3.47;;;1.73;;
3349;SDS011;1688;51.000;13.684;2023-04-01T12:01:06;2.30;;;2.10;;
3349;SDS011;1688;51.000;13.684;2023-04-01T12:14:54;2.00;;;1.10;;
3349;SDS011;1688;51.000;13.684;2023-04-01T12:17:43;0.80;;;0.53;;
3349;SDS011;1688;51.000;13.684;2023-04-01T12:31:13;1.47;;;0.67;;
3349;SDS011;1688;51.000;13.684;2023-04-01T12:33:52;0.90;;;0.60;;
3349;SDS011;1688;51.000;13.684;2023-04-01T12:41:53;5.10;;;1.33;;
3349;SDS011;1688;51.000;13.684;2023-04-01T12:47:23;1.23;;;0.70;;
3349;SDS011;1688;51.000;13.684;2023-04-01T12:55:17;0.70;;;0.40;;
3349;SDS011;1688;51.000;13.684;2023-04-01T13:04:19;1.10;;;0.50;;
3349;SDS011;1688;51.000;13.684;2023-04-01T13:25:39;0.80;;;0.60;;
3349;SDS011;1688;51.000;13.684;2023-04-01T13:28:16;0.70;;;0.50;;
3349;SDS011;1688;51.000;13.684;2023-04-01T13:36:11;2.87;;;0.50;;
3349;SDS011;1688;51.000;13.684;2023-04-01T13:38:51;1.00;;;0.80;;
3349;SDS011;1688;51.000;13.684;2023-04-01T14:05:29;0.80;;;0.57;;
3349;SDS011;1688;51.000;13.684;2023-04-01T14:16:47;0.90;;;0.50;;
3349;SDS011;1688;51.000;13.684;2023-04-01T14:24:57;0.70;;;0.40;;
3349;SDS011;1688;51.000;13.684;2023-04-01T14:27:40;0.80;;;0.50;;
3349;SDS011;1688;51.000;13.684;2023-04-01T14:30:48;0.70;;;0.40;;
3349;SDS011;1688;51.000;13.684;2023-04-01T14:49:36;1.33;;;0.93;;
3349;SDS011;1688;51.000;13.684;2023-04-01T14:52:14;0.80;;;0.60;;
3349;SDS011;1688;51.000;13.684;2023-04-01T14:54:48;1.10;;;0.60;;
3349;SDS011;1688;51.000;13.684;2023-04-01T14:57:30;1.20;;;0.70;;
3349;SDS011;1688;51.000;13.684;2023-04-01T15:00:17;1.63;;;1.00;;
3349;SDS011;1688;51.000;13.684;2023-04-01T15:02:58;2.03;;;0.70;;
3349;SDS011;1688;51.000;13.684;2023-04-01T15:05:39;1.57;;;0.70;;
3349;SDS011;1688;51.000;13.684;2023-04-01T15:08:30;0.93;;;0.70;;
3349;SDS011;1688;51.000;13.684;2023-04-01T15:16:34;0.70;;;0.50;;
3349;SDS011;1688;51.000;13.684;2023-04-01T15:30:23;0.80;;;0.50;;
3349;SDS011;1688;51.000;13.684;2023-04-01T15:35:57;1.27;;;0.67;;
3349;SDS011;1688;51.000;13.684;2023-04-01T15:41:14;0.80;;;0.50;;
3349;SDS011;1688;51.000;13.684;2023-04-01T15:43:49;0.90;;;0.70;;
3349;SDS011;1688;51.000;13.684;2023-04-01T15:46:44;1.40;;;0.80;;
3349;SDS011;1688;51.000;13.684;2023-04-01T15:57:54;1.43;;;1.07;;
3349;SDS011;1688;51.000;13.684;2023-04-01T16:14:32;0.93;;;0.70;;
3349;SDS011;1688;51.000;13.684;2023-04-01T16:27:54;0.70;;;0.50;;
3349;SDS011;1688;51.000;13.684;2023-04-01T16:43:48;2.30;;;1.00;;
3349;SDS011;1688;51.000;13.684;2023-04-01T16:46:31;2.10;;;1.00;;
3349;SDS011;1688;51.000;13.684;2023-04-01T16:54:31;6.87;;;1.87;;
3349;SDS011;1688;51.000;13.684;2023-04-01T17:02:25;2.73;;;2.40;;
3349;SDS011;1688;51.000;13.684;2023-04-01T17:05:08;2.20;;;1.80;;
3349;SDS011;1688;51.000;13.684;2023-04-01T17:07:46;1.20;;;0.97;;
3349;SDS011;1688;51.000;13.684;2023-04-01T17:21:16;3.57;;;3.07;;
3349;SDS011;1688;51.000;13.684;2023-04-01T17:23:53;3.70;;;3.00;;
3349;SDS011;1688;51.000;13.684;2023-04-01T17:29:18;3.77;;;2.30;;
3349;SDS011;1688;51.000;13.684;2023-04-01T17:32:06;2.43;;;2.23;;
3349;SDS011;1688;51.000;13.684;2023-04-01T17:34:46;3.10;;;2.57;;
3349;SDS011;1688;51.000;13.684;2023-04-01T17:40:07;4.17;;;2.53;;
3349;SDS011;1688;51.000;13.684;2023-04-01T17:45:31;6.00;;;3.70;;
3349;SDS011;1688;51.000;13.684;2023-04-01T18:04:35;4.17;;;3.30;;
3349;SDS011;1688;51.000;13.684;2023-04-01T18:15:21;2.63;;;2.43;;
3349;SDS011;1688;51.000;13.684;2023-04-01T18:18:10;3.53;;;2.43;;
3349;SDS011;1688;51.000;13.684;2023-04-01T18:23:53;4.50;;;2.57;;
3349;SDS011;1688;51.000;13.684;2023-04-01T18:26:34;7.20;;;2.90;;
3349;SDS011;1688;51.000;13.684;2023-04-01T18:31:52;8.90;;;3.33;;
3349;SDS011;1688;51.000;13.684;2023-04-01T18:34:43;2.40;;;2.10;;
3349;SDS011;1688;51.000;13.684;2023-04-01T18:37:24;3.00;;;2.07;;
3349;SDS011;1688;51.000;13.684;2023-04-01T18:40:04;1.67;;;1.33;;
3349;SDS011;1688;51.000;13.684;2023-04-01T18:50:55;4.10;;;2.53;;
3349;SDS011;1688;51.000;13.684;2023-04-01T18:53:31;4.40;;;2.77;;
3349;SDS011;1688;51.000;13.684;2023-04-01T18:59:11;7.60;;;3.00;;
3349;SDS011;1688;51.000;13.684;2023-04-01T19:04:39;4.93;;;3.00;;
3349;SDS011;1688;51.000;13.684;2023-04-01T19:07:33;4.37;;;3.50;;
3349;SDS011;1688;51.000;13.684;2023-04-01T19:10:14;4.00;;;3.47;;
3349;SDS011;1688;51.000;13.684;2023-04-01T19:15:52;2.60;;;2.10;;
3349;SDS011;1688;51.000;13.684;2023-04-01T19:18:34;2.87;;;1.70;;
3349;SDS011;1688;51.000;13.684;2023-04-01T19:21:11;7.00;;;2.37;;
3349;SDS011;1688;51.000;13.684;2023-04-01T19:23:56;3.77;;;2.90;;
3349;SDS011;1688;51.000;13.684;2023-04-01T19:29:15;4.67;;;2.77;;
3349;SDS011;1688;51.000;13.684;2023-04-01T19:32:02;14.53;;;2.20;;
3349;SDS011;1688;51.000;13.684;2023-04-01T19:34:47;6.57;;;2.20;;
3349;SDS011;1688;51.000;13.684;2023-04-01T19:40:01;2.70;;;1.93;;
3349;SDS011;1688;51.000;13.684;2023-04-01T19:53:24;2.03;;;1.60;;
3349;SDS011;1688;51.000;13.684;2023-04-01T19:56:06;2.23;;;1.87;;
3349;SDS011;1688;51.000;13.684;2023-04-01T19:58:54;5.00;;;2.23;;
3349;SDS011;1688;51.000;13.684;2023-04-01T20:01:36;1.07;;;0.97;;
3349;SDS011;1688;51.000;13.684;2023-04-01T20:12:00;4.70;;;1.60;;
3349;SDS011;1688;51.000;13.684;2023-04-01T20:14:48;2.03;;;1.00;;
3349;SDS011;1688;51.000;13.684;2023-04-01T20:17:44;1.97;;;1.53;;
3349;SDS011;1688;51.000;13.684;2023-04-01T20:20:19;3.73;;;1.90;;
3349;SDS011;1688;51.000;13.684;2023-04-01T20:26:02;1.97;;;1.63;;
3349;SDS011;1688;51.000;13.684;2023-04-01T20:29:02;1.43;;;1.07;;
3349;SDS011;1688;51.000;13.684;2023-04-01T20:31:40;1.83;;;1.40;;
3349;SDS011;1688;51.000;13.684;2023-04-01T21:03:56;2.90;;;1.70;;
3349;SDS011;1688;51.000;13.684;2023-04-01T21:20:59;3.33;;;1.83;;
3349;SDS011;1688;51.000;13.684;2023-04-01T21:28:49;2.30;;;1.97;;
3349;SDS011;1688;51.000;13.684;2023-04-01T21:31:33;2.33;;;2.10;;
3349;SDS011;1688;51.000;13.684;2023-04-01T22:11:23;7.80;;;2.90;;
3349;SDS011;1688;51.000;13.684;2023-04-01T22:19:17;1.47;;;0.73;;
3349;SDS011;1688;51.000;13.684;2023-04-01T22:21:56;2.90;;;1.20;;
3349;SDS011;1688;51.000;13.684;2023-04-01T22:32:46;1.83;;;1.10;;
3349;SDS011;1688;51.000;13.684;2023-04-01T22:38:25;2.10;;;1.90;;
3349;SDS011;1688;51.000;13.684;2023-04-01T22:43:42;4.33;;;2.80;;
3349;SDS011;1688;51.000;13.684;2023-04-01T22:48:51;2.77;;;1.80;;
3349;SDS011;1688;51.000;13.684;2023-04-01T22:54:14;1.97;;;1.80;;
3349;SDS011;1688;51.000;13.684;2023-04-01T22:56:52;2.97;;;2.60;;
3349;SDS011;1688;51.000;13.684;2023-04-01T22:59:31;1.90;;;1.43;;
3349;SDS011;1688;51.000;13.684;2023-04-01T23:02:10;2.57;;;2.03;;
3349;SDS011;1688;51.000;13.684;2023-04-01T23:04:47;5.70;;;3.70;;
3349;SDS011;1688;51.000;13.684;2023-04-01T23:09:58;2.40;;;1.37;;
3349;SDS011;1688;51.000;13.684;2023-04-01T23:12:34;3.03;;;1.30;;
3349;SDS011;1688;51.000;13.684;2023-04-01T23:15:11;3.57;;;1.90;;
3349;SDS011;1688;51.000;13.684;2023-04-01T23:26:10;6.30;;;3.63;;
3349;SDS011;1688;51.000;13.684;2023-04-01T23:28:47;4.20;;;2.20;;
3349;SDS011;1688;51.000;13.684;2023-04-01T23:31:34;4.47;;;2.00;;
3349;SDS011;1688;51.000;13.684;2023-04-01T23:36:55;3.63;;;2.63;;
3349;SDS011;1688;51.000;13.684;2023-04-01T23:39:30;3.90;;;2.83;;
3349;SDS011;1688;51.000;13.684;2023-04-01T23:42:12;2.03;;;1.73;;
3349;SDS011;1688;51.000;13.684;2023-04-01T23:44:47;3.50;;;3.10;;
3349;SDS011;1688;51.000;13.684;2023-04-01T23:47:22;5.33;;;2.80;;
3349;SDS011;1688;51.000;13.684;2023-04-01T23:49:57;7.40;;;3.33;;
3349;SDS011;1688;51.000;13.684;2023-04-01T23:52:43;1.47;;;1.37;;
3349;SDS011;1688;51.000;13.684;2023-04-01T23:55:24;3.47;;;2.27;;
